createdAt,value
2018-06-30T00:00:01.807Z,1.70
2018-06-30T00:02:29.868Z,1.60
2018-06-30T00:04:57.904Z,1.63
2018-06-30T00:07:25.977Z,1.70
2018-06-30T00:09:54.063Z,1.80
2018-06-30T00:12:22.373Z,1.60
2018-06-30T00:14:50.428Z,1.70
2018-06-30T00:17:18.584Z,1.40
2018-06-30T00:19:46.776Z,1.70
2018-06-30T00:22:14.828Z,1.47
2018-06-30T00:24:42.927Z,1.80
2018-06-30T00:27:16.488Z,1.77
2018-06-30T00:29:44.624Z,1.60
2018-06-30T00:32:12.669Z,1.60
2018-06-30T00:34:40.741Z,1.60
2018-06-30T00:37:08.907Z,1.60
2018-06-30T00:39:37.056Z,1.40
2018-06-30T00:42:05.149Z,1.57
2018-06-30T00:44:33.192Z,1.60
2018-06-30T00:47:01.297Z,1.50
2018-06-30T00:49:29.466Z,1.70
2018-06-30T00:51:57.563Z,1.30
2018-06-30T00:54:25.720Z,1.50
2018-06-30T00:56:53.664Z,1.60
2018-06-30T00:59:21.833Z,1.70
2018-06-30T01:01:50.010Z,1.67
2018-06-30T01:04:18.108Z,1.70
2018-06-30T01:06:46.184Z,1.67
2018-06-30T01:09:14.275Z,1.57
2018-06-30T01:11:42.344Z,1.70
2018-06-30T01:14:10.448Z,1.70
2018-06-30T01:16:38.524Z,1.50
2018-06-30T01:19:06.608Z,1.47
2018-06-30T01:21:34.665Z,1.50
2018-06-30T01:24:02.765Z,1.70
2018-06-30T01:26:30.864Z,1.50
2018-06-30T01:28:59.060Z,1.57
2018-06-30T01:31:27.136Z,1.70
2018-06-30T01:33:55.236Z,1.40
2018-06-30T01:36:23.334Z,1.60
2018-06-30T01:38:51.416Z,1.57
2018-06-30T01:41:19.586Z,1.50
2018-06-30T01:43:47.683Z,1.63
2018-06-30T01:46:15.772Z,1.60
2018-06-30T01:48:43.926Z,1.53
2018-06-30T01:51:12.110Z,1.30
2018-06-30T01:53:40.216Z,1.37
2018-06-30T01:56:08.268Z,1.50
2018-06-30T01:58:36.311Z,1.50
2018-06-30T02:01:04.235Z,1.60
2018-06-30T02:03:32.347Z,1.27
2018-06-30T02:06:00.416Z,1.43
2018-06-30T02:08:28.480Z,1.37
2018-06-30T02:10:56.563Z,1.30
2018-06-30T02:13:24.777Z,1.20
2018-06-30T02:15:52.872Z,1.40
2018-06-30T02:18:21.027Z,1.40
2018-06-30T02:20:49.100Z,1.30
2018-06-30T02:23:17.148Z,1.60
2018-06-30T02:25:45.243Z,1.47
2018-06-30T02:28:13.296Z,1.20
2018-06-30T02:30:41.376Z,1.20
2018-06-30T02:33:09.424Z,1.40
2018-06-30T02:35:37.506Z,1.40
2018-06-30T02:38:05.619Z,1.40
2018-06-30T02:40:33.687Z,1.30
2018-06-30T02:43:01.889Z,1.50
2018-06-30T02:45:30.000Z,1.30
2018-06-30T02:47:58.064Z,1.20
2018-06-30T02:50:26.141Z,1.30
2018-06-30T02:52:54.240Z,1.33
2018-06-30T02:55:22.338Z,1.30
2018-06-30T02:57:50.414Z,1.40
2018-06-30T03:00:18.496Z,1.20
2018-06-30T03:02:46.561Z,1.60
2018-06-30T03:05:14.637Z,1.23
2018-06-30T03:07:42.738Z,1.30
2018-06-30T03:10:10.789Z,1.40
2018-06-30T03:12:38.909Z,1.30
2018-06-30T03:15:07.009Z,1.20
2018-06-30T03:17:35.067Z,1.20
2018-06-30T03:20:03.177Z,1.50
2018-06-30T03:22:31.263Z,1.20
2018-06-30T03:24:59.335Z,1.20
2018-06-30T03:27:27.441Z,1.37
2018-06-30T03:29:55.512Z,1.30
2018-06-30T03:32:23.596Z,1.30
2018-06-30T03:34:51.677Z,1.23
2018-06-30T03:37:19.751Z,1.27
2018-06-30T03:39:47.821Z,1.33
2018-06-30T03:42:16.050Z,1.30
2018-06-30T03:44:44.084Z,1.20
2018-06-30T03:47:12.221Z,1.10
2018-06-30T03:49:40.176Z,1.20
2018-06-30T03:52:08.233Z,1.30
2018-06-30T03:54:36.369Z,1.27
2018-06-30T03:57:04.436Z,1.20
2018-06-30T03:59:32.501Z,1.20
2018-06-30T04:02:00.566Z,1.10
2018-06-30T04:04:28.684Z,1.10
2018-06-30T04:06:56.781Z,1.37
2018-06-30T04:09:24.898Z,1.00
2018-06-30T04:11:53.092Z,1.00
2018-06-30T04:14:21.208Z,1.20
2018-06-30T04:16:49.283Z,1.03
2018-06-30T04:19:17.456Z,1.20
2018-06-30T04:21:46.700Z,1.10
2018-06-30T04:24:14.780Z,1.20
2018-06-30T04:26:43.584Z,1.10
2018-06-30T04:29:12.513Z,1.00
2018-06-30T04:31:40.572Z,1.17
2018-06-30T04:34:09.077Z,1.10
2018-06-30T04:36:37.189Z,0.93
2018-06-30T04:39:07.493Z,1.07
2018-06-30T04:41:35.592Z,1.20
2018-06-30T04:44:03.688Z,1.30
2018-06-30T04:46:31.854Z,1.00
2018-06-30T04:48:59.916Z,1.00
2018-06-30T04:51:27.984Z,1.10
2018-06-30T04:53:56.072Z,1.00
2018-06-30T04:56:24.256Z,1.00
2018-06-30T04:58:52.346Z,1.13
2018-06-30T05:01:20.474Z,1.00
2018-06-30T05:03:48.546Z,1.27
2018-06-30T05:06:16.617Z,1.07
2018-06-30T05:08:44.693Z,0.90
2018-06-30T05:11:12.756Z,1.00
2018-06-30T05:13:41.011Z,1.03
2018-06-30T05:16:09.047Z,1.07
2018-06-30T05:18:37.150Z,1.10
2018-06-30T05:21:05.234Z,1.00
2018-06-30T05:23:33.343Z,1.03
2018-06-30T05:26:01.549Z,1.07
2018-06-30T05:28:29.476Z,1.00
2018-06-30T05:30:57.527Z,1.00
2018-06-30T05:33:25.787Z,1.03
2018-06-30T05:35:53.793Z,0.97
2018-06-30T05:38:21.872Z,1.00
2018-06-30T05:40:49.961Z,0.90
2018-06-30T05:43:18.398Z,0.90
2018-06-30T05:45:46.473Z,1.10
2018-06-30T05:48:14.568Z,1.00
2018-06-30T05:50:42.619Z,1.20
2018-06-30T05:53:10.810Z,1.20
2018-06-30T05:55:39.037Z,1.07
2018-06-30T05:58:07.155Z,0.90
2018-06-30T06:00:35.228Z,1.20
2018-06-30T06:03:03.304Z,1.00
2018-06-30T06:05:31.362Z,1.00
2018-06-30T06:07:59.503Z,1.00
2018-06-30T06:10:27.585Z,1.10
2018-06-30T06:12:55.693Z,1.00
2018-06-30T06:15:23.843Z,0.90
2018-06-30T06:17:52.392Z,0.80
2018-06-30T06:20:20.524Z,1.00
2018-06-30T06:22:48.363Z,1.00
2018-06-30T06:25:16.444Z,0.90
2018-06-30T06:27:44.532Z,0.90
2018-06-30T06:30:12.639Z,0.80
2018-06-30T06:32:40.827Z,1.00
2018-06-30T06:35:08.795Z,1.00
2018-06-30T06:37:37.076Z,0.70
2018-06-30T06:40:05.168Z,0.80
2018-06-30T06:42:33.248Z,0.73
2018-06-30T06:45:01.300Z,0.80
2018-06-30T06:47:29.461Z,1.00
2018-06-30T06:49:57.548Z,0.80
2018-06-30T06:52:25.732Z,0.93
2018-06-30T06:54:53.893Z,0.80
2018-06-30T06:57:21.990Z,0.80
2018-06-30T06:59:50.177Z,0.70
2018-06-30T07:02:18.054Z,0.80
2018-06-30T07:04:46.204Z,0.90
2018-06-30T07:07:14.264Z,0.90
2018-06-30T07:09:42.313Z,0.73
2018-06-30T07:12:10.396Z,0.70
2018-06-30T07:14:38.448Z,0.87
2018-06-30T07:17:06.535Z,0.83
2018-06-30T07:19:34.686Z,0.77
2018-06-30T07:22:02.832Z,0.70
2018-06-30T07:24:30.885Z,0.80
2018-06-30T07:26:59.022Z,0.80
2018-06-30T07:29:27.130Z,0.80
2018-06-30T07:31:55.269Z,0.90
2018-06-30T07:34:23.458Z,0.90
2018-06-30T07:36:51.615Z,0.80
2018-06-30T07:39:19.720Z,0.70
2018-06-30T07:41:47.832Z,0.73
2018-06-30T07:44:15.964Z,0.70
2018-06-30T07:46:44.056Z,0.60
2018-06-30T07:49:12.191Z,0.80
2018-06-30T07:51:40.301Z,0.87
2018-06-30T07:54:08.344Z,0.70
2018-06-30T07:56:36.201Z,0.80
2018-06-30T07:59:04.267Z,0.90
2018-06-30T08:01:32.469Z,0.70
2018-06-30T08:04:00.575Z,0.70
2018-06-30T08:06:28.656Z,0.80
2018-06-30T08:08:56.752Z,0.70
2018-06-30T08:11:25.303Z,0.60
2018-06-30T08:13:53.850Z,0.60
2018-06-30T08:16:21.963Z,0.90
2018-06-30T08:18:50.188Z,0.77
2018-06-30T08:21:18.764Z,0.83
2018-06-30T08:23:46.849Z,1.00
2018-06-30T08:26:15.164Z,0.90
2018-06-30T08:28:43.230Z,1.53
2018-06-30T08:31:11.276Z,1.27
2018-06-30T08:33:39.452Z,1.40
2018-06-30T08:36:07.895Z,1.10
2018-06-30T08:38:35.979Z,2.83
2018-06-30T08:41:04.052Z,5.53
2018-06-30T08:43:32.124Z,3.07
2018-06-30T08:46:00.214Z,3.20
2018-06-30T08:48:28.324Z,4.80
2018-06-30T08:50:56.436Z,3.03
2018-06-30T08:53:24.530Z,2.30
2018-06-30T08:55:53.876Z,2.20
2018-06-30T08:58:22.570Z,2.50
2018-06-30T09:00:50.701Z,2.17
2018-06-30T09:03:18.759Z,1.70
2018-06-30T09:05:46.993Z,2.20
2018-06-30T09:08:15.041Z,1.73
2018-06-30T09:10:43.209Z,1.50
2018-06-30T09:13:11.249Z,1.80
2018-06-30T09:15:39.432Z,1.50
2018-06-30T09:18:07.480Z,1.70
2018-06-30T09:20:35.597Z,2.07
2018-06-30T09:23:03.717Z,3.40
2018-06-30T09:25:31.853Z,5.67
2018-06-30T09:28:00.079Z,13.20
2018-06-30T09:30:28.175Z,9.27
2018-06-30T09:32:56.224Z,8.40
2018-06-30T09:35:24.440Z,6.90
2018-06-30T09:37:52.528Z,4.83
2018-06-30T09:40:20.665Z,6.20
2018-06-30T09:42:48.919Z,5.90
2018-06-30T09:45:17.120Z,4.23
2018-06-30T09:47:45.184Z,4.93
2018-06-30T09:50:13.249Z,4.60
2018-06-30T09:52:41.356Z,3.60
2018-06-30T09:55:09.429Z,3.67
2018-06-30T09:57:37.565Z,3.43
2018-06-30T10:00:07.017Z,2.73
2018-06-30T10:02:35.182Z,2.97
2018-06-30T10:05:03.119Z,3.63
2018-06-30T10:07:31.412Z,2.67
2018-06-30T10:09:59.560Z,2.70
2018-06-30T10:12:27.657Z,3.33
2018-06-30T10:14:55.749Z,3.10
2018-06-30T10:17:23.926Z,2.37
2018-06-30T10:19:52.036Z,3.33
2018-06-30T10:22:20.100Z,2.50
2018-06-30T10:24:48.204Z,2.67
2018-06-30T10:27:16.285Z,2.60
2018-06-30T10:29:44.384Z,2.57
2018-06-30T10:32:12.456Z,2.80
2018-06-30T10:34:40.560Z,2.87
2018-06-30T10:37:08.697Z,3.03
2018-06-30T10:39:36.639Z,3.83
2018-06-30T10:42:05.003Z,3.33
2018-06-30T10:44:33.145Z,2.90
2018-06-30T10:47:01.245Z,2.60
2018-06-30T10:51:53.076Z,2.37
2018-06-30T10:56:01.252Z,1.80
2018-06-30T10:58:29.344Z,1.93
2018-06-30T11:00:57.481Z,2.43
2018-06-30T11:03:25.620Z,2.10
2018-06-30T11:05:53.824Z,1.80
2018-06-30T11:08:21.886Z,2.10
2018-06-30T11:10:49.967Z,2.27
2018-06-30T11:13:18.151Z,2.47
2018-06-30T11:15:46.393Z,1.70
2018-06-30T11:18:14.580Z,1.80
2018-06-30T11:20:42.756Z,1.50
2018-06-30T11:23:11.001Z,2.13
2018-06-30T11:25:39.260Z,1.90
2018-06-30T11:28:07.249Z,2.47
2018-06-30T11:30:35.347Z,2.83
2018-06-30T11:33:03.444Z,2.57
2018-06-30T11:35:31.537Z,3.30
2018-06-30T11:37:59.688Z,2.33
2018-06-30T11:40:27.632Z,2.00
2018-06-30T11:42:55.835Z,1.90
2018-06-30T11:45:24.008Z,2.03
2018-06-30T11:47:52.228Z,2.33
2018-06-30T11:50:20.403Z,1.80
2018-06-30T11:52:48.458Z,1.80
2018-06-30T11:55:16.546Z,1.97
2018-06-30T11:57:44.696Z,1.63
2018-06-30T12:00:13.362Z,2.10
2018-06-30T12:02:41.581Z,2.60
2018-06-30T12:05:09.836Z,6.60
2018-06-30T12:07:37.932Z,3.10
2018-06-30T12:10:06.415Z,2.90
2018-06-30T12:12:34.404Z,2.47
2018-06-30T12:15:02.749Z,2.40
2018-06-30T12:17:30.927Z,1.90
2018-06-30T12:19:59.022Z,1.73
2018-06-30T12:22:27.113Z,1.70
2018-06-30T12:24:55.258Z,1.80
2018-06-30T12:27:23.324Z,1.60
2018-06-30T12:29:51.296Z,1.50
2018-06-30T12:32:19.424Z,1.00
2018-06-30T12:34:47.496Z,1.23
2018-06-30T12:37:15.581Z,1.10
2018-06-30T12:39:43.776Z,1.73
2018-06-30T12:42:11.916Z,1.73
2018-06-30T12:44:40.059Z,1.87
2018-06-30T12:47:08.172Z,1.80
2018-06-30T12:49:36.248Z,2.07
2018-06-30T12:52:04.311Z,1.73
2018-06-30T12:54:32.675Z,3.40
2018-06-30T12:57:00.599Z,2.83
2018-06-30T12:59:28.804Z,2.13
2018-06-30T13:01:56.908Z,2.10
2018-06-30T13:04:24.969Z,2.20
2018-06-30T13:06:53.117Z,2.70
2018-06-30T13:09:21.299Z,2.40
2018-06-30T13:11:49.514Z,4.30
2018-06-30T13:14:17.595Z,2.13
2018-06-30T13:16:45.676Z,2.07
2018-06-30T13:19:13.791Z,2.93
2018-06-30T13:21:42.082Z,2.20
2018-06-30T13:24:10.207Z,4.43
2018-06-30T13:26:38.381Z,4.30
2018-06-30T13:29:06.453Z,3.60
2018-06-30T13:31:34.396Z,2.77
2018-06-30T13:34:02.544Z,3.33
2018-06-30T13:36:30.672Z,3.07
2018-06-30T13:38:58.983Z,4.40
2018-06-30T13:41:27.248Z,2.90
2018-06-30T13:43:55.469Z,2.87
2018-06-30T13:46:23.784Z,2.90
2018-06-30T13:48:51.963Z,2.63
2018-06-30T13:51:20.459Z,2.63
2018-06-30T13:53:48.628Z,2.73
2018-06-30T13:56:16.748Z,3.13
2018-06-30T13:58:44.901Z,2.47
2018-06-30T14:01:13.005Z,3.00
2018-06-30T14:03:41.190Z,3.33
2018-06-30T14:06:09.405Z,3.50
2018-06-30T14:08:37.683Z,3.23
2018-06-30T14:11:06.041Z,3.27
2018-06-30T14:13:34.347Z,3.33
2018-06-30T14:16:02.292Z,3.87
2018-06-30T14:18:30.507Z,4.23
2018-06-30T14:20:58.483Z,3.63
2018-06-30T14:23:26.685Z,3.97
2018-06-30T14:25:54.823Z,4.30
2018-06-30T14:28:23.213Z,3.47
2018-06-30T14:30:51.416Z,3.23
2018-06-30T14:33:20.048Z,3.07
2018-06-30T14:35:48.090Z,3.40
2018-06-30T14:38:16.260Z,4.90
2018-06-30T14:40:44.401Z,6.27
2018-06-30T14:43:12.549Z,25.07
2018-06-30T14:45:40.648Z,29.13
2018-06-30T14:48:08.596Z,31.23
2018-06-30T14:50:36.884Z,29.03
2018-06-30T14:53:05.097Z,26.13
2018-06-30T14:55:33.163Z,25.70
2018-06-30T14:58:01.276Z,20.70
2018-06-30T15:00:29.348Z,15.83
2018-06-30T15:02:57.420Z,11.67
2018-06-30T15:05:25.566Z,10.10
2018-06-30T15:07:53.692Z,6.77
2018-06-30T15:10:21.788Z,6.40
2018-06-30T15:12:50.033Z,5.23
2018-06-30T15:15:18.060Z,5.47
2018-06-30T15:17:46.020Z,6.37
2018-06-30T15:20:14.131Z,4.90
2018-06-30T15:22:42.283Z,4.27
2018-06-30T15:25:10.425Z,4.67
2018-06-30T15:27:38.577Z,3.90
2018-06-30T15:30:06.716Z,3.50
2018-06-30T15:32:34.912Z,4.00
2018-06-30T15:35:03.249Z,3.20
2018-06-30T15:37:31.468Z,8.13
2018-06-30T15:39:59.529Z,7.20
2018-06-30T15:42:27.484Z,6.43
2018-06-30T15:44:55.481Z,4.97
2018-06-30T15:47:23.759Z,4.83
2018-06-30T15:49:51.873Z,8.23
2018-06-30T15:52:20.251Z,4.70
2018-06-30T15:54:48.720Z,3.83
2018-06-30T15:57:16.822Z,4.73
2018-06-30T15:59:45.139Z,3.50
2018-06-30T16:02:13.233Z,4.17
2018-06-30T16:04:41.428Z,3.27
2018-06-30T16:07:09.504Z,3.80
2018-06-30T16:09:37.644Z,3.40
2018-06-30T16:12:05.704Z,3.37
2018-06-30T16:14:33.901Z,2.93
2018-06-30T16:17:02.060Z,3.00
2018-06-30T16:19:30.136Z,4.03
2018-06-30T16:21:58.232Z,3.37
2018-06-30T16:24:26.377Z,3.27
2018-06-30T16:26:54.496Z,3.00
2018-06-30T16:29:22.664Z,3.00
2018-06-30T16:31:50.818Z,2.90
2018-06-30T16:34:18.962Z,2.60
2018-06-30T16:36:47.281Z,2.67
2018-06-30T16:39:15.371Z,2.83
2018-06-30T16:41:43.502Z,2.87
2018-06-30T16:44:11.583Z,2.40
2018-06-30T16:46:39.701Z,2.20
2018-06-30T16:49:08.236Z,2.00
2018-06-30T16:51:36.277Z,2.20
2018-06-30T16:54:04.501Z,1.80
2018-06-30T16:56:32.548Z,1.83
2018-06-30T16:59:00.651Z,1.77
2018-06-30T17:01:28.732Z,1.80
2018-06-30T17:03:56.873Z,1.80
2018-06-30T17:06:24.993Z,1.90
2018-06-30T17:08:53.110Z,2.13
2018-06-30T17:11:21.758Z,1.70
2018-06-30T17:13:49.863Z,1.80
2018-06-30T17:16:17.956Z,1.70
2018-06-30T17:18:46.057Z,1.50
2018-06-30T17:21:14.146Z,1.63
2018-06-30T17:23:42.250Z,2.37
2018-06-30T17:26:10.347Z,1.50
2018-06-30T17:28:38.437Z,1.57
2018-06-30T17:31:06.668Z,1.40
2018-06-30T17:33:34.736Z,1.43
2018-06-30T17:36:02.824Z,1.33
2018-06-30T17:38:30.895Z,1.17
2018-06-30T17:40:59.103Z,1.30
2018-06-30T17:43:27.283Z,1.10
2018-06-30T17:45:55.488Z,1.30
2018-06-30T17:48:23.592Z,1.30
2018-06-30T17:50:51.732Z,1.37
2018-06-30T17:53:19.933Z,1.20
2018-06-30T17:55:48.063Z,1.50
2018-06-30T17:58:16.116Z,1.33
2018-06-30T18:00:44.256Z,1.20
2018-06-30T18:03:12.382Z,1.10
2018-06-30T18:05:40.475Z,1.10
2018-06-30T18:08:08.612Z,1.13
2018-06-30T18:10:36.676Z,1.20
2018-06-30T18:13:04.605Z,1.10
2018-06-30T18:15:32.727Z,1.10
2018-06-30T18:18:00.825Z,1.10
2018-06-30T18:20:28.770Z,1.20
2018-06-30T18:22:56.946Z,1.00
2018-06-30T18:25:25.113Z,1.03
2018-06-30T18:27:53.312Z,1.00
2018-06-30T18:30:21.455Z,0.90
2018-06-30T18:32:50.580Z,1.10
2018-06-30T18:35:18.768Z,1.10
2018-06-30T18:37:46.841Z,0.83
2018-06-30T18:40:14.973Z,1.13
2018-06-30T18:42:43.044Z,1.00
2018-06-30T18:45:11.136Z,1.00
2018-06-30T18:47:39.233Z,1.10
2018-06-30T18:50:07.333Z,0.90
2018-06-30T18:52:35.438Z,0.90
2018-06-30T18:55:03.476Z,0.90
2018-06-30T18:57:31.624Z,0.87
2018-06-30T18:59:59.769Z,0.83
2018-06-30T19:02:27.840Z,0.87
2018-06-30T19:04:56.114Z,0.90
2018-06-30T19:07:24.235Z,0.97
2018-06-30T19:09:52.331Z,0.90
2018-06-30T19:12:20.697Z,1.00
2018-06-30T19:14:48.757Z,1.00
2018-06-30T19:17:16.848Z,1.00
2018-06-30T19:19:44.893Z,1.00
2018-06-30T19:22:12.948Z,0.77
2018-06-30T19:24:41.064Z,1.03
2018-06-30T19:27:09.192Z,0.90
2018-06-30T19:29:37.404Z,0.90
2018-06-30T19:32:05.283Z,0.80
2018-06-30T19:34:33.360Z,0.87
2018-06-30T19:37:01.541Z,0.90
2018-06-30T19:39:29.617Z,0.87
2018-06-30T19:41:57.684Z,0.80
2018-06-30T19:44:25.849Z,0.90
2018-06-30T19:46:53.986Z,0.77
2018-06-30T19:49:22.380Z,0.80
2018-06-30T19:51:50.475Z,0.90
2018-06-30T19:54:18.635Z,0.80
2018-06-30T19:56:46.717Z,1.00
2018-06-30T19:59:14.800Z,0.90
2018-06-30T20:01:42.896Z,0.70
2018-06-30T20:04:10.964Z,1.00
2018-06-30T20:06:39.040Z,1.00
2018-06-30T20:09:07.504Z,0.90
2018-06-30T20:11:35.716Z,0.80
2018-06-30T20:14:03.870Z,0.70
2018-06-30T20:16:32.075Z,0.90
2018-06-30T20:19:00.184Z,0.80
2018-06-30T20:21:28.281Z,0.70
2018-06-30T20:23:56.380Z,0.70
2018-06-30T20:26:24.525Z,0.80
2018-06-30T20:28:52.605Z,1.00
2018-06-30T20:31:20.799Z,0.90
2018-06-30T20:33:48.937Z,0.90
2018-06-30T20:36:17.058Z,0.90
2018-06-30T20:38:45.165Z,0.80
2018-06-30T20:41:13.368Z,1.00
2018-06-30T20:43:41.432Z,0.83
2018-06-30T20:46:09.493Z,0.93
2018-06-30T20:48:37.620Z,1.00
2018-06-30T20:51:05.808Z,0.90
2018-06-30T20:53:33.873Z,1.00
2018-06-30T20:56:01.967Z,0.80
2018-06-30T20:58:30.119Z,0.73
2018-06-30T21:00:58.180Z,0.80
2018-06-30T21:03:26.225Z,1.10
2018-06-30T21:05:54.344Z,0.80
2018-06-30T21:08:22.460Z,0.93
2018-06-30T21:10:50.680Z,0.90
2018-06-30T21:13:18.735Z,0.97
2018-06-30T21:15:46.932Z,0.83
2018-06-30T21:18:15.021Z,0.70
2018-06-30T21:20:43.174Z,0.77
2018-06-30T21:23:11.210Z,0.83
2018-06-30T21:25:39.296Z,0.90
2018-06-30T21:28:07.501Z,0.90
2018-06-30T21:30:35.559Z,0.80
2018-06-30T21:33:03.629Z,0.90
2018-06-30T21:35:31.776Z,0.77
2018-06-30T21:38:00.029Z,1.00
2018-06-30T21:40:28.092Z,0.80
2018-06-30T21:42:56.188Z,0.80
2018-06-30T21:45:24.424Z,0.80
2018-06-30T21:47:52.645Z,0.90
2018-06-30T21:50:20.745Z,1.00
2018-06-30T21:52:48.962Z,0.80
2018-06-30T21:55:17.109Z,0.90
2018-06-30T21:57:45.148Z,0.90
2018-06-30T22:00:14.317Z,0.83
2018-06-30T22:02:42.435Z,0.80
2018-06-30T22:05:10.899Z,0.70
2018-06-30T22:07:38.991Z,0.80
2018-06-30T22:10:07.793Z,0.80
2018-06-30T22:12:36.100Z,0.80
2018-06-30T22:15:04.285Z,0.90
2018-06-30T22:17:32.341Z,0.90
2018-06-30T22:20:00.427Z,0.97
2018-06-30T22:22:28.509Z,0.70
2018-06-30T22:24:56.596Z,0.90
2018-06-30T22:27:24.678Z,0.90
2018-06-30T22:29:52.885Z,0.77
2018-06-30T22:32:21.092Z,0.80
2018-06-30T22:34:49.265Z,0.90
2018-06-30T22:37:17.099Z,0.90
2018-06-30T22:39:56.601Z,0.90
2018-06-30T22:42:24.658Z,0.90
2018-06-30T22:44:52.827Z,0.90
2018-06-30T22:47:21.352Z,0.97
2018-06-30T22:49:49.533Z,0.70
2018-06-30T22:52:17.636Z,0.80
2018-06-30T22:54:45.705Z,0.90
2018-06-30T22:57:13.768Z,0.87
2018-06-30T22:59:41.881Z,0.90
2018-06-30T23:02:09.965Z,0.93
2018-06-30T23:04:38.020Z,1.00
2018-06-30T23:07:06.080Z,0.83
2018-06-30T23:09:34.124Z,0.80
2018-06-30T23:12:01.978Z,0.93
2018-06-30T23:14:30.164Z,0.80
2018-06-30T23:16:58.253Z,0.90
2018-06-30T23:19:26.336Z,1.00
2018-06-30T23:21:54.533Z,1.03
2018-06-30T23:24:22.665Z,0.80
2018-06-30T23:26:50.957Z,1.10
2018-06-30T23:29:19.142Z,0.87
2018-06-30T23:31:47.209Z,0.80
2018-06-30T23:34:15.345Z,1.00
2018-06-30T23:36:43.417Z,1.00
2018-06-30T23:39:12.030Z,1.00
2018-06-30T23:41:40.113Z,0.97
2018-06-30T23:44:08.518Z,0.90
2018-06-30T23:46:36.581Z,1.00
2018-06-30T23:49:04.736Z,1.03
2018-06-30T23:51:32.852Z,0.77
2018-06-30T23:54:00.938Z,0.90
2018-06-30T23:56:29.034Z,0.90
2018-06-30T23:58:57.119Z,0.90
